Backworth, United Kingdom
Current Conditions -  °F | °C
As of 9:20 PM on Wednesday 17 Dec 2014 (Local Time) from EGNT Reporting Station
Light Rain Light Rain  
Wind Chill: 52°   Ceiling: 2000
Heat Index: 52°   Visibility: 6mi
Dew Point: 50°   Wind: 12mph
Humidity: 94%   Direction: 250°WSW
Pressure: 29.53"   Gusts: NA
Location:  55.04°N, 1.53°W
Report Text: EGNT 172120Z 25010KT 9999 -RA BKN020 11/10 Q1000
Loading
Personal Weather Stations






























Interactive Weather Map New forecast layout! Learn more

10-Day Weather Forecast

Advertisements
Track Severe Weather on mobile